Time,TemperatureF,DewpointF,PressureIn,WindDirection,WindDirectionDegrees,WindSpeedMPH,WindSpeedGustMPH,Humidity,HourlyPrecipIn,Conditions,Clouds,dailyrainin,SolarRadiationWatts/m^2,SoftwareType,DateUTC
2013-02-12 00:00:00,31.0,22.0,-100.00,North,-999,-999.0,-999.0,67,-99.99,,,0.02,-0.200000,,2013-02-12 08:00:00,
2013-02-12 00:52:00,31.0,22.0,-100.00,North,-999,-999.0,-999.0,67,-99.99,,,0.02,-0.200000,,2013-02-12 08:52:00,
2013-02-12 01:00:00,32.0,21.0,-100.00,North,-999,-999.0,-999.0,64,-99.99,,,0.01,-0.200000,,2013-02-12 09:00:00,
2013-02-12 01:52:00,32.0,21.0,-100.00,North,-999,-999.0,-999.0,64,-99.99,,,0.01,-0.200000,,2013-02-12 09:52:00,
2013-02-12 02:00:00,32.0,20.0,-100.00,North,-999,-999.0,-999.0,62,-99.99,,,-99.99,-0.200000,,2013-02-12 10:00:00,
2013-02-12 02:52:00,32.0,20.0,-100.00,North,-999,-999.0,-999.0,62,-99.99,,,-99.99,-0.200000,,2013-02-12 10:52:00,
2013-02-12 03:00:00,31.0,19.0,-100.00,North,-999,-999.0,-999.0,60,-99.99,,,0.01,-0.200000,,2013-02-12 11:00:00,
2013-02-12 03:52:00,31.0,19.0,-100.00,North,-999,-999.0,-999.0,60,-99.99,,,0.01,-0.200000,,2013-02-12 11:52:00,
2013-02-12 04:00:00,31.0,19.0,-100.00,North,-999,-999.0,-999.0,61,-99.99,,,0.01,-0.200000,,2013-02-12 12:00:00,
2013-02-12 04:52:00,31.0,19.0,-100.00,North,-999,-999.0,-999.0,61,-99.99,,,0.01,-0.200000,,2013-02-12 12:52:00,
2013-02-12 05:00:00,32.0,20.0,-100.00,North,-999,-999.0,-999.0,60,-99.99,,,0.02,-0.200000,,2013-02-12 13:00:00,
2013-02-12 05:52:00,32.0,20.0,-100.00,North,-999,-999.0,-999.0,60,-99.99,,,0.02,-0.200000,,2013-02-12 13:52:00,
2013-02-12 06:00:00,31.0,22.0,-100.00,North,-999,-999.0,-999.0,67,-99.99,,,0.00,-0.200000,,2013-02-12 14:00:00,
2013-02-12 06:52:00,31.0,22.0,-100.00,North,-999,-999.0,-999.0,67,-99.99,,,0.00,-0.200000,,2013-02-12 14:52:00,
2013-02-12 07:00:00,32.0,25.0,-100.00,North,-999,-999.0,-999.0,74,-99.99,,,-99.99,-0.200000,,2013-02-12 15:00:00,
2013-02-12 07:52:00,32.0,25.0,-100.00,North,-999,-999.0,-999.0,74,-99.99,,,-99.99,-0.200000,,2013-02-12 15:52:00,
2013-02-12 08:00:00,33.0,28.0,-100.00,North,-999,-999.0,-999.0,83,-99.99,,,0.00,5.100000,,2013-02-12 16:00:00,
2013-02-12 08:52:00,33.0,28.0,-100.00,North,-999,-999.0,-999.0,83,-99.99,,,0.00,5.100000,,2013-02-12 16:52:00,
2013-02-12 09:00:00,34.0,30.0,-100.00,North,-999,-999.0,-999.0,88,-99.99,,,0.00,25.299999,,2013-02-12 17:00:00,
2013-02-12 09:52:00,34.0,30.0,-100.00,North,-999,-999.0,-999.0,88,-99.99,,,0.00,25.299999,,2013-02-12 17:52:00,
2013-02-12 10:00:00,35.0,31.0,-100.00,North,-999,-999.0,-999.0,88,-99.99,,,0.00,64.800003,,2013-02-12 18:00:00,
2013-02-12 10:52:00,35.0,31.0,-100.00,North,-999,-999.0,-999.0,88,-99.99,,,0.00,64.800003,,2013-02-12 18:52:00,
2013-02-12 11:00:00,36.0,30.0,-100.00,North,-999,-999.0,-999.0,81,-99.99,,,0.00,107.000000,,2013-02-12 19:00:00,
2013-02-12 11:52:00,36.0,30.0,-100.00,North,-999,-999.0,-999.0,81,-99.99,,,0.00,107.000000,,2013-02-12 19:52:00,
2013-02-12 12:00:00,36.0,26.0,-100.00,North,-999,-999.0,-999.0,68,-99.99,,,0.00,237.100006,,2013-02-12 20:00:00,
2013-02-12 12:52:00,36.0,26.0,-100.00,North,-999,-999.0,-999.0,68,-99.99,,,0.00,237.100006,,2013-02-12 20:52:00,
2013-02-12 13:00:00,36.0,27.0,-100.00,North,-999,-999.0,-999.0,69,-99.99,,,0.00,169.500000,,2013-02-12 21:00:00,
2013-02-12 13:52:00,36.0,27.0,-100.00,North,-999,-999.0,-999.0,69,-99.99,,,0.00,169.500000,,2013-02-12 21:52:00,
2013-02-12 14:00:00,36.0,30.0,-100.00,North,-999,-999.0,-999.0,76,-99.99,,,0.00,151.899994,,2013-02-12 22:00:00,
2013-02-12 14:52:00,36.0,30.0,-100.00,North,-999,-999.0,-999.0,76,-99.99,,,0.00,151.899994,,2013-02-12 22:52:00,
2013-02-12 15:00:00,36.0,31.0,-100.00,North,-999,-999.0,-999.0,81,-99.99,,,0.00,175.199997,,2013-02-12 23:00:00,
2013-02-12 15:52:00,36.0,31.0,-100.00,North,-999,-999.0,-999.0,81,-99.99,,,0.00,175.199997,,2013-02-12 23:52:00,
2013-02-12 16:00:00,35.0,32.0,-100.00,North,-999,-999.0,-999.0,89,-99.99,,,0.00,89.000000,,2013-02-13 00:00:00,
2013-02-12 16:52:00,35.0,32.0,-100.00,North,-999,-999.0,-999.0,89,-99.99,,,0.00,89.000000,,2013-02-13 00:52:00,
2013-02-12 17:00:00,34.0,32.0,-100.00,North,-999,-999.0,-999.0,94,-99.99,,,0.00,27.900000,,2013-02-13 01:00:00,
2013-02-12 17:52:00,34.0,32.0,-100.00,North,-999,-999.0,-999.0,94,-99.99,,,0.00,27.900000,,2013-02-13 01:52:00,
2013-02-12 19:00:00,33.0,31.0,-100.00,North,-999,-999.0,-999.0,94,-99.99,,,0.00,-0.200000,,2013-02-13 03:00:00,
2013-02-12 19:52:00,33.0,31.0,-100.00,North,-999,-999.0,-999.0,94,-99.99,,,0.00,-0.200000,,2013-02-13 03:52:00,
2013-02-12 20:00:00,32.0,31.0,-100.00,North,-999,-999.0,-999.0,95,-99.99,,,0.00,-0.200000,,2013-02-13 04:00:00,
2013-02-12 20:52:00,32.0,31.0,-100.00,North,-999,-999.0,-999.0,95,-99.99,,,0.00,-0.200000,,2013-02-13 04:52:00,
2013-02-12 21:00:00,33.0,32.0,-100.00,North,-999,-999.0,-999.0,97,-99.99,,,0.00,-0.200000,,2013-02-13 05:00:00,
2013-02-12 21:52:00,33.0,32.0,-100.00,North,-999,-999.0,-999.0,97,-99.99,,,0.00,-0.200000,,2013-02-13 05:52:00,
2013-02-12 22:00:00,33.0,32.0,-100.00,North,-999,-999.0,-999.0,97,-99.99,,,0.00,-0.200000,,2013-02-13 06:00:00,
2013-02-12 22:52:00,33.0,32.0,-100.00,North,-999,-999.0,-999.0,97,-99.99,,,0.00,-0.200000,,2013-02-13 06:52:00,
2013-02-12 23:00:00,33.0,32.0,-100.00,North,-999,-999.0,-999.0,97,-99.99,,,0.00,-0.200000,,2013-02-13 07:00:00,
2013-02-12 23:52:00,33.0,32.0,-100.00,North,-999,-999.0,-999.0,97,-99.99,,,0.00,-0.200000,,2013-02-13 07:52:00,